Terminal Aerodrome Forecast
Issued by NWS Duluth, MN

Home | Current Version | Previous Version | Text Only | Print | Product List | Glossary On
Versions: 1 2 3 4 5 6 7 8 9 10 11 12 13 14 15 16 17 18 19 20 21 22 23 24
441
FTUS43 KDLH 211123 AAA
TAFINL
TAF AMD
KINL 211123Z 2111/2212 15003KT P6SM SCT250
     FM212000 18008G15KT P6SM VCSH BKN100
     FM212200 17007KT P6SM VCSH OVC070
     FM220200 VRB03KT P6SM -SHRA BKN050
     FM220600 VRB03KT P6SM SCT025
     FM220700 27003KT P6SM SCT100=

USA.gov is the U.S. government's official web portal to all federal, state and local government web resources and services.